createdAt,value
2019-02-10T00:00:46.579Z,3.37
2019-02-10T00:03:14.999Z,3.72
2019-02-10T00:05:43.445Z,3.80
2019-02-10T00:08:11.891Z,4.22
2019-02-10T00:10:40.338Z,3.98
2019-02-10T00:13:34.190Z,3.20
2019-02-10T00:16:05.440Z,3.10
2019-02-10T00:18:33.859Z,2.98
2019-02-10T00:21:02.301Z,3.22
2019-02-10T00:23:30.781Z,3.15
2019-02-10T00:25:59.237Z,2.90
2019-02-10T00:28:27.747Z,3.65
2019-02-10T00:30:56.238Z,2.80
2019-02-10T00:33:24.692Z,2.30
2019-02-10T00:35:53.087Z,2.15
2019-02-10T00:38:21.520Z,2.50
2019-02-10T00:40:49.941Z,3.08
2019-02-10T00:43:18.376Z,3.08
2019-02-10T00:45:46.860Z,3.40
2019-02-10T00:48:15.307Z,3.80
2019-02-10T00:50:43.732Z,4.37
2019-02-10T00:53:12.161Z,4.78
2019-02-10T00:55:40.586Z,4.40
2019-02-10T00:58:09.108Z,3.83
2019-02-10T01:00:37.593Z,4.60
2019-02-10T01:03:06.094Z,4.25
2019-02-10T01:05:34.537Z,5.03
2019-02-10T01:08:02.978Z,4.97
2019-02-10T01:10:31.410Z,5.00
2019-02-10T01:12:59.926Z,4.62
2019-02-10T01:15:28.359Z,5.17
2019-02-10T01:17:56.779Z,5.17
2019-02-10T01:20:25.285Z,5.05
2019-02-10T01:22:54.749Z,5.92
2019-02-10T01:25:23.237Z,6.28
2019-02-10T01:27:51.729Z,5.50
2019-02-10T01:30:20.180Z,4.92
2019-02-10T01:32:48.611Z,5.58
2019-02-10T01:35:17.053Z,5.70
2019-02-10T01:37:45.470Z,5.35
2019-02-10T01:40:13.995Z,5.53
2019-02-10T01:42:42.417Z,3.50
2019-02-10T01:45:14.565Z,4.60
2019-02-10T01:47:42.991Z,3.72
2019-02-10T01:50:11.710Z,4.35
2019-02-10T01:52:40.210Z,4.08
2019-02-10T01:55:11.735Z,3.90
2019-02-10T01:57:40.147Z,4.92
2019-02-10T02:00:15.050Z,4.40
2019-02-10T02:02:43.447Z,4.30
2019-02-10T02:05:12.065Z,4.53
2019-02-10T02:07:40.616Z,4.50
2019-02-10T02:10:11.641Z,4.65
2019-02-10T02:12:40.067Z,4.65
2019-02-10T02:15:11.338Z,5.03
2019-02-10T02:17:39.831Z,4.28
2019-02-10T02:20:09.807Z,4.12
2019-02-10T02:22:38.300Z,5.37
2019-02-10T02:25:08.850Z,4.80
2019-02-10T02:27:37.423Z,4.78
2019-02-10T02:30:08.449Z,4.40
2019-02-10T02:32:36.913Z,4.50
2019-02-10T02:35:05.811Z,4.55
2019-02-10T02:37:34.275Z,5.00
2019-02-10T02:40:02.775Z,4.80
2019-02-10T02:42:31.284Z,5.00
2019-02-10T02:44:59.709Z,4.78
2019-02-10T02:47:28.168Z,4.75
2019-02-10T02:49:56.604Z,4.75
2019-02-10T02:52:25.111Z,4.72
2019-02-10T02:54:53.532Z,5.12
2019-02-10T02:57:21.972Z,5.87
2019-02-10T02:59:50.382Z,4.58
2019-02-10T03:02:18.810Z,4.97
2019-02-10T03:04:47.238Z,5.00
2019-02-10T03:07:18.074Z,4.85
2019-02-10T03:09:45.810Z,5.10
2019-02-10T03:12:14.257Z,4.10
2019-02-10T03:14:42.690Z,4.45
2019-02-10T03:17:11.183Z,4.15
2019-02-10T03:19:39.604Z,4.72
2019-02-10T03:22:08.047Z,4.20
2019-02-10T03:24:36.469Z,3.95
2019-02-10T03:27:05.048Z,4.40
2019-02-10T03:29:33.471Z,4.10
2019-02-10T03:32:01.889Z,4.10
2019-02-10T03:34:30.326Z,4.30
2019-02-10T03:36:58.741Z,4.40
2019-02-10T03:39:27.184Z,4.87
2019-02-10T03:41:55.592Z,4.50
2019-02-10T03:44:24.031Z,4.85
2019-02-10T03:46:52.455Z,4.03
2019-02-10T03:49:20.908Z,5.17
2019-02-10T03:51:49.316Z,4.25
2019-02-10T03:54:17.887Z,4.50
2019-02-10T03:56:46.382Z,5.80
2019-02-10T03:59:14.899Z,4.33
2019-02-10T04:01:43.313Z,4.40
2019-02-10T04:04:11.741Z,4.72
2019-02-10T04:06:40.158Z,5.05
2019-02-10T04:09:08.618Z,5.78
2019-02-10T04:11:37.034Z,4.92
2019-02-10T04:14:05.454Z,4.60
2019-02-10T04:16:33.907Z,4.72
2019-02-10T04:19:02.369Z,4.50
2019-02-10T04:21:30.780Z,4.83
2019-02-10T04:23:59.198Z,5.25
2019-02-10T04:26:27.632Z,4.72
2019-02-10T04:28:56.042Z,4.70
2019-02-10T04:31:24.485Z,3.92
2019-02-10T04:33:52.904Z,4.50
2019-02-10T04:36:21.354Z,4.47
2019-02-10T04:38:49.821Z,3.85
2019-02-10T04:41:18.248Z,4.12
2019-02-10T04:43:46.687Z,4.60
2019-02-10T04:46:15.215Z,3.90
2019-02-10T04:48:43.628Z,4.65
2019-02-10T04:51:12.058Z,4.30
2019-02-10T04:53:40.473Z,4.37
2019-02-10T04:56:10.748Z,4.90
2019-02-10T04:58:39.167Z,4.08
2019-02-10T05:01:07.613Z,6.47
2019-02-10T05:03:36.025Z,3.75
2019-02-10T05:06:04.526Z,4.67
2019-02-10T05:08:32.943Z,4.30
2019-02-10T05:11:01.380Z,4.65
2019-02-10T05:13:29.840Z,5.35
2019-02-10T05:15:58.263Z,4.47
2019-02-10T05:18:26.705Z,4.35
2019-02-10T05:20:55.200Z,4.35
2019-02-10T05:23:23.643Z,4.62
2019-02-10T05:25:52.067Z,4.97
2019-02-10T05:28:22.051Z,6.22
2019-02-10T05:30:50.475Z,6.15
2019-02-10T05:33:18.919Z,6.28
2019-02-10T05:35:47.344Z,5.58
2019-02-10T05:38:15.776Z,4.83
2019-02-10T05:40:44.199Z,4.75
2019-02-10T05:43:12.650Z,4.90
2019-02-10T05:45:41.056Z,4.72
2019-02-10T05:48:09.486Z,4.55
2019-02-10T05:50:37.899Z,4.37
2019-02-10T05:53:06.339Z,4.30
2019-02-10T05:55:34.762Z,6.03
2019-02-10T05:58:03.238Z,5.15
2019-02-10T06:00:31.659Z,5.08
2019-02-10T06:03:00.077Z,5.50
2019-02-10T06:05:28.517Z,4.92
2019-02-10T06:07:56.924Z,5.50
2019-02-10T06:10:25.358Z,5.28
2019-02-10T06:12:53.850Z,5.37
2019-02-10T06:15:22.374Z,5.10
2019-02-10T06:17:50.781Z,4.85
2019-02-10T06:20:19.219Z,5.70
2019-02-10T06:22:47.638Z,5.85
2019-02-10T06:25:16.075Z,6.20
2019-02-10T06:27:44.491Z,6.65
2019-02-10T06:30:13.006Z,5.80
2019-02-10T06:32:41.431Z,6.40
2019-02-10T06:35:10.146Z,7.33
2019-02-10T06:37:38.558Z,6.65
2019-02-10T06:40:08.554Z,6.58
2019-02-10T06:42:36.969Z,6.50
2019-02-10T06:45:08.130Z,6.85
2019-02-10T06:47:36.568Z,6.35
2019-02-10T06:50:07.680Z,6.65
2019-02-10T06:52:36.095Z,6.10
2019-02-10T06:55:06.476Z,8.58
2019-02-10T06:57:34.935Z,7.15
2019-02-10T07:00:21.374Z,8.80
2019-02-10T07:03:10.916Z,8.25
2019-02-10T07:05:39.358Z,9.90
2019-02-10T07:08:07.784Z,6.42
2019-02-10T07:10:36.366Z,8.15
2019-02-10T07:13:04.787Z,6.87
2019-02-10T07:16:01.595Z,6.00
2019-02-10T07:19:06.102Z,4.95
2019-02-10T07:21:34.835Z,6.40
2019-02-10T07:24:22.641Z,5.75
2019-02-10T07:26:55.654Z,4.95
2019-02-10T07:29:42.154Z,4.22
2019-02-10T07:32:12.151Z,4.12
2019-02-10T07:34:49.379Z,4.25
2019-02-10T07:37:23.827Z,4.60
2019-02-10T07:39:55.316Z,3.95
2019-02-10T07:42:50.623Z,4.25
2019-02-10T07:45:40.030Z,4.40
2019-02-10T07:48:26.264Z,3.95
2019-02-10T07:51:15.248Z,4.15
2019-02-10T07:53:55.407Z,3.35
2019-02-10T07:56:44.031Z,3.92
2019-02-10T07:59:18.505Z,3.30
2019-02-10T08:01:55.925Z,3.75
2019-02-10T08:04:51.515Z,3.55
2019-02-10T08:07:45.251Z,6.67
2019-02-10T08:10:40.903Z,6.25
2019-02-10T08:13:15.406Z,4.70
2019-02-10T08:15:55.840Z,3.52
2019-02-10T08:18:32.887Z,4.40
2019-02-10T08:21:11.191Z,4.87
2019-02-10T08:23:48.295Z,5.65
2019-02-10T08:26:35.890Z,4.70
2019-02-10T08:29:22.082Z,4.60
2019-02-10T08:32:14.991Z,4.45
2019-02-10T08:35:07.516Z,3.40
2019-02-10T08:37:54.111Z,3.20
2019-02-10T08:40:46.231Z,3.60
2019-02-10T08:43:44.371Z,3.42
2019-02-10T08:46:21.312Z,3.83
2019-02-10T08:49:31.887Z,3.85
2019-02-10T08:52:16.894Z,3.80
2019-02-10T08:54:45.355Z,4.08
2019-02-10T08:57:13.799Z,3.60
2019-02-10T08:59:42.210Z,3.95
2019-02-10T09:02:10.658Z,3.50
2019-02-10T09:04:39.070Z,3.50
2019-02-10T09:07:07.512Z,3.58
2019-02-10T09:09:35.939Z,3.22
2019-02-10T09:12:04.459Z,4.10
2019-02-10T09:14:32.891Z,3.50
2019-02-10T09:17:01.327Z,3.75
2019-02-10T09:19:29.800Z,3.40
2019-02-10T09:21:58.228Z,5.30
2019-02-10T09:24:26.680Z,3.30
2019-02-10T09:26:55.093Z,3.37
2019-02-10T09:29:23.542Z,3.50
2019-02-10T09:31:51.978Z,2.92
2019-02-10T09:34:20.398Z,3.02
2019-02-10T09:36:48.839Z,3.27
2019-02-10T09:39:17.256Z,3.15
2019-02-10T09:41:45.776Z,3.20
2019-02-10T09:44:14.206Z,3.17
2019-02-10T09:46:42.626Z,3.05
2019-02-10T09:49:11.068Z,3.00
2019-02-10T09:51:39.505Z,3.62
2019-02-10T09:54:07.965Z,2.85
2019-02-10T09:56:36.384Z,3.05
2019-02-10T09:59:04.962Z,2.90
2019-02-10T10:01:33.373Z,2.77
2019-02-10T10:04:01.883Z,2.20
2019-02-10T10:06:30.360Z,2.35
2019-02-10T10:08:58.797Z,3.15
2019-02-10T10:11:27.246Z,2.55
2019-02-10T10:13:55.698Z,2.17
2019-02-10T10:16:24.197Z,2.12
2019-02-10T10:18:52.657Z,1.50
2019-02-10T10:21:21.103Z,2.30
2019-02-10T10:23:49.675Z,3.15
2019-02-10T10:26:18.088Z,3.00
2019-02-10T10:28:46.543Z,2.95
2019-02-10T10:31:14.981Z,2.20
2019-02-10T10:33:43.399Z,2.17
2019-02-10T10:36:11.863Z,2.30
2019-02-10T10:38:40.386Z,2.55
2019-02-10T10:41:08.887Z,2.35
2019-02-10T10:43:37.350Z,2.45
2019-02-10T10:46:05.798Z,2.15
2019-02-10T10:48:34.230Z,2.27
2019-02-10T10:51:02.802Z,5.40
2019-02-10T10:53:31.243Z,4.00
2019-02-10T10:56:00.760Z,2.72
2019-02-10T10:58:29.179Z,2.27
2019-02-10T11:00:57.708Z,2.02
2019-02-10T11:03:26.115Z,2.05
2019-02-10T11:05:54.589Z,4.03
2019-02-10T11:08:23.065Z,3.20
2019-02-10T11:10:51.542Z,2.33
2019-02-10T11:13:20.025Z,2.10
2019-02-10T11:15:48.495Z,2.45
2019-02-10T11:18:16.926Z,2.10
2019-02-10T11:20:45.705Z,2.45
2019-02-10T11:23:14.159Z,2.70
2019-02-10T11:25:42.626Z,1.85
2019-02-10T11:28:11.046Z,3.02
2019-02-10T11:30:39.520Z,2.87
2019-02-10T11:33:07.961Z,2.30
2019-02-10T11:35:36.396Z,2.73
2019-02-10T11:38:04.883Z,2.13
2019-02-10T11:40:33.306Z,2.30
2019-02-10T11:43:01.897Z,2.57
2019-02-10T11:45:30.387Z,2.40
2019-02-10T11:47:58.906Z,3.80
2019-02-10T11:50:27.346Z,3.57
2019-02-10T11:52:55.819Z,2.50
2019-02-10T11:55:24.294Z,3.03
2019-02-10T11:57:52.748Z,2.33
2019-02-10T12:00:21.246Z,3.70
2019-02-10T12:02:50.567Z,2.43
2019-02-10T12:05:19.011Z,2.63
2019-02-10T12:07:47.475Z,3.00
2019-02-10T12:10:15.886Z,2.40
2019-02-10T12:12:44.346Z,2.27
2019-02-10T12:15:14.103Z,2.23
2019-02-10T12:17:44.381Z,1.80
2019-02-10T12:20:14.177Z,1.50
2019-02-10T12:22:49.823Z,2.00
2019-02-10T12:25:12.790Z,2.13
2019-02-10T12:27:41.233Z,2.30
2019-02-10T12:30:12.852Z,2.33
2019-02-10T12:32:41.287Z,2.00
2019-02-10T12:35:10.984Z,1.80
2019-02-10T12:37:39.435Z,1.57
2019-02-10T12:40:09.522Z,1.80
2019-02-10T12:42:37.958Z,1.60
2019-02-10T12:45:08.956Z,1.67
2019-02-10T12:47:37.371Z,1.60
2019-02-10T12:50:11.730Z,2.00
2019-02-10T12:52:40.225Z,2.20
2019-02-10T12:55:10.030Z,2.13
2019-02-10T12:57:38.461Z,2.00
2019-02-10T13:00:17.669Z,1.97
2019-02-10T13:02:46.103Z,1.93
2019-02-10T13:05:14.556Z,2.20
2019-02-10T13:07:42.983Z,2.03
2019-02-10T13:10:13.082Z,2.03
2019-02-10T13:12:41.501Z,2.17
2019-02-10T13:15:11.095Z,2.20
2019-02-10T13:17:39.539Z,2.50
2019-02-10T13:20:12.018Z,1.80
2019-02-10T13:22:40.542Z,1.93
2019-02-10T13:25:10.511Z,3.10
2019-02-10T13:27:39.051Z,1.77
2019-02-10T13:30:18.060Z,2.00
2019-02-10T13:32:46.556Z,1.90
2019-02-10T13:35:15.084Z,1.70
2019-02-10T13:37:43.519Z,1.77
2019-02-10T13:40:16.689Z,1.73
2019-02-10T13:42:45.267Z,1.90
2019-02-10T13:45:13.681Z,1.97
2019-02-10T13:47:42.161Z,1.67
2019-02-10T13:50:13.408Z,1.77
2019-02-10T13:52:42.102Z,2.10
2019-02-10T13:55:15.257Z,1.53
2019-02-10T13:57:43.709Z,1.33
2019-02-10T14:00:23.054Z,2.03
2019-02-10T14:02:51.593Z,1.87
2019-02-10T14:05:20.019Z,1.70
2019-02-10T14:07:48.455Z,3.40
2019-02-10T14:10:25.205Z,5.00
2019-02-10T14:12:48.267Z,1.90
2019-02-10T14:15:20.085Z,1.97
2019-02-10T14:17:48.692Z,2.07
2019-02-10T14:20:20.319Z,2.30
2019-02-10T14:22:48.822Z,2.87
2019-02-10T14:25:17.243Z,2.97
2019-02-10T14:27:45.680Z,2.00
2019-02-10T14:30:19.438Z,3.23
2019-02-10T14:32:48.059Z,2.67
2019-02-10T14:35:16.492Z,3.80
2019-02-10T14:37:44.943Z,3.20
2019-02-10T14:40:13.510Z,2.50
2019-02-10T14:42:42.096Z,4.03
2019-02-10T14:45:15.035Z,6.20
2019-02-10T14:47:43.459Z,4.63
2019-02-10T14:50:16.408Z,1.80
2019-02-10T14:52:44.833Z,1.10
2019-02-10T14:55:13.416Z,1.20
2019-02-10T14:57:41.851Z,1.62
2019-02-10T15:00:13.098Z,1.47
2019-02-10T15:02:41.526Z,1.82
2019-02-10T15:05:10.115Z,1.70
2019-02-10T15:07:38.545Z,1.40
2019-02-10T15:10:20.953Z,1.70
2019-02-10T15:12:49.387Z,1.50
2019-02-10T15:15:17.978Z,1.10
2019-02-10T15:17:46.404Z,1.60
2019-02-10T15:20:14.993Z,1.20
2019-02-10T15:22:43.496Z,2.45
2019-02-10T15:25:12.912Z,1.30
2019-02-10T15:27:41.354Z,2.70
2019-02-10T15:30:16.788Z,1.90
2019-02-10T15:32:45.213Z,1.50
2019-02-10T15:35:13.758Z,1.62
2019-02-10T15:37:42.191Z,1.90
2019-02-10T15:40:13.927Z,2.42
2019-02-10T15:42:42.430Z,1.55
2019-02-10T15:45:12.558Z,2.17
2019-02-10T15:47:41.047Z,1.90
2019-02-10T15:50:11.922Z,1.50
2019-02-10T15:52:40.336Z,1.95
2019-02-10T15:55:12.436Z,1.60
2019-02-10T15:57:40.967Z,1.30
2019-02-10T16:00:17.155Z,1.77
2019-02-10T16:02:45.576Z,2.10
2019-02-10T16:05:14.005Z,2.05
2019-02-10T16:07:42.519Z,2.10
2019-02-10T17:47:12.196Z,1.22
2019-02-10T17:49:40.648Z,1.50
2019-02-10T17:52:09.072Z,1.15
2019-02-10T17:54:37.544Z,1.60
2019-02-10T17:57:06.071Z,1.27
2019-02-10T17:59:34.512Z,1.07
2019-02-10T18:02:02.999Z,1.17
2019-02-10T18:04:37.409Z,1.50
2019-02-10T18:07:01.670Z,1.00
2019-02-10T18:09:30.249Z,1.32
2019-02-10T18:11:59.287Z,1.20
2019-02-10T18:14:38.602Z,1.20
2019-02-10T18:17:11.667Z,1.22
2019-02-10T18:19:47.296Z,1.12
2019-02-10T18:22:20.077Z,1.00
2019-02-10T18:25:06.843Z,1.17
2019-02-10T18:27:42.710Z,1.00
2019-02-10T18:30:20.227Z,1.10
2019-02-10T18:32:53.260Z,1.40
2019-02-10T18:35:26.143Z,1.02
2019-02-10T18:37:56.274Z,0.95
2019-02-10T18:40:43.580Z,1.37
2019-02-10T18:43:22.582Z,1.05
2019-02-10T18:45:52.704Z,1.27
2019-02-10T18:48:25.229Z,1.60
2019-02-10T18:50:55.327Z,1.10
2019-02-10T18:53:25.434Z,1.00
2019-02-10T18:56:11.840Z,1.10
2019-02-10T18:59:00.081Z,1.42
2019-02-10T19:01:32.810Z,1.10
2019-02-10T19:04:05.634Z,0.93
2019-02-10T19:06:35.681Z,1.35
2019-02-10T19:09:09.628Z,1.70
2019-02-10T19:11:47.119Z,1.35
2019-02-10T19:14:20.480Z,1.12
2019-02-10T19:17:08.305Z,1.30
2019-02-10T19:19:44.477Z,1.50
2019-02-10T19:22:20.556Z,1.10
2019-02-10T19:24:50.674Z,1.05
2019-02-10T19:27:20.764Z,2.17
2019-02-10T19:30:00.153Z,1.90
2019-02-10T19:32:45.827Z,1.82
2019-02-10T19:35:31.198Z,2.35
2019-02-10T19:38:10.445Z,2.50
2019-02-10T19:40:40.516Z,1.80
2019-02-10T19:43:19.918Z,1.10
2019-02-10T19:45:58.912Z,1.00
2019-02-10T19:48:34.971Z,1.10
2019-02-10T19:51:07.890Z,1.22
2019-02-10T19:53:37.956Z,1.17
2019-02-10T19:56:13.625Z,0.90
2019-02-10T19:58:43.696Z,1.30
2019-02-10T20:01:30.079Z,1.00
2019-02-10T20:04:16.605Z,0.90
2019-02-10T20:06:46.684Z,1.10
2019-02-10T20:09:25.916Z,1.00
2019-02-10T20:12:12.396Z,1.00
2019-02-10T20:14:42.570Z,0.90
2019-02-10T20:17:31.047Z,1.00
2019-02-10T20:20:13.058Z,1.40
2019-02-10T20:22:49.162Z,0.95
2019-02-10T20:25:35.536Z,1.25
2019-02-10T20:28:17.719Z,1.20
2019-02-10T20:30:50.530Z,1.60
2019-02-10T20:33:20.608Z,1.10
2019-02-10T20:36:09.215Z,1.35
2019-02-10T20:38:42.086Z,1.15
2019-02-10T20:41:27.503Z,1.45
2019-02-10T20:44:14.080Z,1.50
2019-02-10T20:46:44.287Z,1.10
2019-02-10T20:49:17.411Z,1.62
2019-02-10T20:51:53.275Z,3.67
2019-02-10T20:54:26.010Z,1.30
2019-02-10T20:56:58.871Z,2.42
2019-02-10T20:59:28.959Z,2.35
2019-02-10T21:02:02.075Z,1.70
2019-02-10T21:04:40.961Z,1.20
2019-02-10T21:07:14.084Z,1.45
2019-02-10T21:09:53.025Z,2.47
2019-02-10T21:12:23.095Z,1.32
2019-02-10T21:15:05.094Z,1.00
2019-02-10T21:17:35.199Z,1.27
2019-02-10T21:20:15.130Z,1.57
2019-02-10T21:22:45.264Z,1.60
2019-02-10T21:25:31.679Z,2.80
2019-02-10T21:28:01.768Z,1.90
2019-02-10T21:30:34.616Z,2.30
2019-02-10T21:33:10.683Z,2.85
2019-02-10T21:35:46.748Z,4.10
2019-02-10T21:38:16.862Z,1.92
2019-02-10T21:40:46.900Z,3.15
2019-02-10T21:43:19.811Z,1.20
2019-02-10T21:45:52.786Z,1.80
2019-02-10T21:48:25.398Z,1.20
2019-02-10T21:50:53.835Z,1.75
2019-02-10T21:53:22.290Z,1.10
2019-02-10T21:55:50.737Z,1.22
2019-02-10T21:58:19.309Z,1.30
2019-02-10T22:00:47.800Z,0.93
2019-02-10T22:03:16.262Z,0.90
2019-02-10T22:05:44.703Z,0.90
2019-02-10T22:08:13.139Z,1.40
2019-02-10T22:10:41.615Z,1.25
2019-02-10T22:13:10.031Z,1.80
2019-02-10T22:15:38.481Z,1.00
2019-02-10T22:18:06.903Z,1.30
2019-02-10T22:20:35.343Z,0.90
2019-02-10T22:23:03.778Z,0.90
2019-02-10T22:25:32.215Z,0.98
2019-02-10T22:28:00.634Z,1.00
2019-02-10T22:30:29.057Z,1.47
2019-02-10T22:32:57.509Z,1.10
2019-02-10T22:35:25.918Z,1.47
2019-02-10T22:37:56.004Z,1.10
2019-02-10T22:40:24.479Z,1.20
2019-02-10T22:42:52.953Z,1.00
2019-02-10T22:45:21.373Z,1.37
2019-02-10T22:47:49.809Z,1.12
2019-02-10T22:50:18.237Z,1.10
2019-02-10T22:52:46.676Z,1.55
2019-02-10T22:55:15.168Z,1.32
2019-02-10T22:57:43.617Z,1.15
2019-02-10T23:00:28.118Z,1.20
2019-02-10T23:02:56.579Z,1.40
2019-02-10T23:05:24.999Z,1.27
2019-02-10T23:07:53.455Z,0.80
2019-02-10T23:10:21.867Z,1.32
2019-02-10T23:12:53.705Z,0.90
2019-02-10T23:15:20.477Z,0.90
2019-02-10T23:17:48.987Z,1.20
2019-02-10T23:20:17.413Z,1.15
2019-02-10T23:22:45.822Z,1.10
2019-02-10T23:25:14.267Z,0.90
2019-02-10T23:27:42.989Z,1.40
2019-02-10T23:30:11.469Z,1.10
2019-02-10T23:32:39.880Z,1.00
2019-02-10T23:35:08.327Z,1.05
2019-02-10T23:37:36.747Z,1.60
2019-02-10T23:40:06.431Z,1.40
2019-02-10T23:42:34.848Z,1.50
2019-02-10T23:45:03.896Z,1.50
2019-02-10T23:47:32.320Z,1.50
2019-02-10T23:50:00.908Z,1.50
2019-02-10T23:52:29.319Z,1.45
2019-02-10T23:54:57.755Z,1.37
2019-02-10T23:57:26.183Z,1.07
2019-02-10T23:59:54.620Z,1.27
